createdAt,value
2022-08-11T00:01:16.800Z,24.83
2022-08-11T00:03:51.600Z,25.78
2022-08-11T00:06:29.971Z,26.30
2022-08-11T00:08:58.941Z,26.86
2022-08-11T00:11:35.785Z,26.54
2022-08-11T00:14:06.468Z,27.06
2022-08-11T00:16:35.597Z,27.06
2022-08-11T00:19:05.117Z,27.23
2022-08-11T00:22:04.087Z,27.51
2022-08-11T00:24:53.321Z,27.54
2022-08-11T00:27:22.438Z,27.74
2022-08-11T00:29:55.370Z,27.69
2022-08-11T00:32:24.092Z,27.64
2022-08-11T00:34:53.156Z,27.64
2022-08-11T00:37:50.419Z,27.56
2022-08-11T00:40:27.533Z,27.56
2022-08-11T00:43:05.595Z,27.56
2022-08-11T00:45:47.691Z,27.45
2022-08-11T00:48:28.331Z,27.49
2022-08-11T00:51:10.478Z,27.49
2022-08-11T00:53:50.044Z,27.51
2022-08-11T00:56:48.574Z,27.48
2022-08-11T00:59:36.983Z,27.43
2022-08-11T01:02:19.653Z,27.40
2022-08-11T01:05:29.598Z,27.37
2022-08-11T01:08:25.123Z,27.19
2022-08-11T01:11:20.526Z,27.28
2022-08-11T01:14:17.913Z,26.87
2022-08-11T01:17:32.655Z,26.69
2022-08-11T01:20:47.556Z,26.13
2022-08-11T01:23:49.963Z,25.90
2022-08-11T01:27:19.241Z,26.73
2022-08-11T01:30:30.827Z,26.98
2022-08-11T01:33:54.288Z,27.12
2022-08-11T01:37:01.859Z,26.98
2022-08-11T01:40:11.867Z,27.01
2022-08-11T01:43:32.960Z,27.05
2022-08-11T01:46:07.190Z,27.02
2022-08-11T01:48:45.011Z,27.10
2022-08-11T01:51:25.802Z,27.04
2022-08-11T01:54:04.054Z,26.97
2022-08-11T01:56:59.108Z,26.95
2022-08-11T01:59:35.407Z,26.87
2022-08-11T02:02:42.996Z,26.83
2022-08-11T02:05:27.235Z,26.82
2022-08-11T02:08:01.831Z,26.82
2022-08-11T02:11:02.588Z,26.77
2022-08-11T02:13:44.641Z,26.75
2022-08-11T02:16:31.071Z,26.78
2022-08-11T02:19:30.751Z,26.75
2022-08-11T02:22:23.199Z,26.68
2022-08-11T02:25:01.032Z,26.67
2022-08-11T02:32:10.971Z,26.66
2022-08-11T02:34:59.531Z,26.47
2022-08-11T02:37:45.310Z,26.54
2022-08-11T02:40:25.140Z,26.52
2022-08-11T02:43:05.667Z,26.53
2022-08-11T02:45:47.385Z,26.49
2022-08-11T02:48:51.777Z,26.19
2022-08-11T02:51:31.163Z,26.33
2022-08-11T02:54:09.907Z,26.35
2022-08-11T02:56:52.376Z,26.36
2022-08-11T02:59:53.518Z,26.34
2022-08-11T03:02:41.289Z,26.31
2022-08-11T03:05:25.193Z,26.31
2022-08-11T03:08:09.101Z,26.31
2022-08-11T03:11:09.433Z,26.32
2022-08-11T03:14:02.447Z,26.27
2022-08-11T03:16:48.287Z,26.27
2022-08-11T03:19:29.631Z,26.23
2022-08-11T03:22:23.341Z,26.19
2022-08-11T03:25:03.736Z,26.27
2022-08-11T03:27:44.523Z,26.17
2022-08-11T03:30:17.588Z,26.12
2022-08-11T03:33:19.134Z,26.05
2022-08-11T03:36:02.250Z,26.07
2022-08-11T03:38:49.336Z,26.00
2022-08-11T03:42:03.692Z,25.97
2022-08-11T03:44:53.522Z,25.93
2022-08-11T03:47:55.417Z,25.93
2022-08-11T03:50:56.853Z,25.94
2022-08-11T03:54:04.940Z,25.92
2022-08-11T03:57:09.001Z,25.91
2022-08-11T04:00:27.739Z,25.88
2022-08-11T04:03:31.455Z,25.80
2022-08-11T04:06:42.859Z,25.75
2022-08-11T04:09:48.830Z,25.80
2022-08-11T04:12:35.870Z,25.78
2022-08-11T04:15:59.097Z,25.77
2022-08-11T04:19:00.608Z,25.76
2022-08-11T04:21:58.607Z,25.77
2022-08-11T04:24:52.638Z,25.70
2022-08-11T04:27:52.602Z,25.70
2022-08-11T04:30:29.329Z,25.68
2022-08-11T04:33:34.415Z,25.61
2022-08-11T04:36:43.741Z,25.59
2022-08-11T04:39:28.348Z,25.66
2022-08-11T04:42:48.097Z,25.67
2022-08-11T04:45:47.451Z,25.67
2022-08-11T04:48:57.923Z,25.66
2022-08-11T04:52:35.965Z,25.62
2022-08-11T04:56:05.696Z,25.67
2022-08-11T04:59:13.123Z,25.75
2022-08-11T05:01:53.017Z,26.37
2022-08-11T05:05:18.722Z,27.46
2022-08-11T05:08:23.907Z,28.13
2022-08-11T05:11:19.437Z,28.56
2022-08-11T05:14:09.253Z,28.83
2022-08-11T05:17:07.373Z,29.12
2022-08-11T05:19:53.473Z,29.38
2022-08-11T05:22:43.506Z,29.53
2022-08-11T05:26:42.670Z,29.60
2022-08-11T05:28:51.521Z,29.88
2022-08-11T05:31:43.589Z,29.82
2022-08-11T05:34:40.281Z,29.68
2022-08-11T05:37:26.169Z,29.73
2022-08-11T05:40:18.885Z,27.38
2022-08-11T05:43:13.219Z,24.55
2022-08-11T05:46:03.956Z,24.53
2022-08-11T05:48:58.631Z,27.56
2022-08-11T05:51:55.479Z,29.13
2022-08-11T05:54:46.176Z,29.50
2022-08-11T05:57:44.048Z,30.40
2022-08-11T06:00:12.742Z,30.75
2022-08-11T06:02:43.861Z,30.88
2022-08-11T06:05:15.156Z,28.02
2022-08-11T06:07:48.832Z,28.31
2022-08-11T06:10:28.634Z,26.99
2022-08-11T06:12:59.510Z,26.85
2022-08-11T06:15:29.173Z,27.36
2022-08-11T06:18:01.382Z,27.33
2022-08-11T06:20:37.555Z,24.27
2022-08-11T06:23:09.911Z,23.63
2022-08-11T06:25:39.453Z,24.53
2022-08-11T06:28:09.519Z,24.25
2022-08-11T06:30:42.077Z,24.68
2022-08-11T06:33:19.198Z,24.75
2022-08-11T06:36:00.755Z,23.92
2022-08-11T06:38:55.652Z,24.72
2022-08-11T06:41:31.955Z,24.83
2022-08-11T06:44:23.483Z,26.91
2022-08-11T06:46:56.050Z,28.44
2022-08-11T06:49:52.582Z,28.56
2022-08-11T06:52:35.040Z,25.41
2022-08-11T06:55:55.777Z,26.34
2022-08-11T06:58:46.779Z,28.14
2022-08-11T07:01:24.097Z,26.17
2022-08-11T07:04:05.312Z,27.51
2022-08-11T07:07:12.282Z,27.84
2022-08-11T07:10:39.010Z,28.99
2022-08-11T07:13:45.316Z,26.73
2022-08-11T07:16:26.472Z,28.17
2022-08-11T07:19:30.080Z,28.02
2022-08-11T07:22:20.950Z,30.26
2022-08-11T07:25:14.395Z,27.44
2022-08-11T07:28:15.460Z,27.78
2022-08-11T07:30:44.916Z,29.94
2022-08-11T07:34:05.516Z,29.52
2022-08-11T07:36:05.172Z,30.05
2022-08-11T07:38:46.087Z,30.36
2022-08-11T07:41:18.619Z,32.06
2022-08-11T07:43:50.531Z,31.40
2022-08-11T07:46:38.390Z,30.15
2022-08-11T07:49:28.537Z,31.21
2022-08-11T07:52:15.204Z,32.68
2022-08-11T07:54:50.107Z,31.17
2022-08-11T07:58:14.647Z,29.22
2022-08-11T08:00:47.081Z,30.58
2022-08-11T08:03:39.261Z,31.60
2022-08-11T08:06:41.421Z,31.67
2022-08-11T08:09:29.496Z,32.21
2022-08-11T08:12:18.789Z,30.40
2022-08-11T08:15:05.194Z,31.36
2022-08-11T08:18:09.669Z,31.04
2022-08-11T08:20:49.921Z,30.29
2022-08-11T08:23:33.193Z,31.16
2022-08-11T08:26:04.724Z,31.90
2022-08-11T08:28:35.005Z,32.55
2022-08-11T08:31:03.453Z,31.50
2022-08-11T08:33:34.324Z,32.23
2022-08-11T08:36:16.369Z,29.70
2022-08-11T08:38:49.579Z,30.34
2022-08-11T08:41:23.753Z,30.61
2022-08-11T08:44:05.897Z,31.08
2022-08-11T08:46:52.918Z,31.54
2022-08-11T08:49:28.349Z,32.55
2022-08-11T08:52:26.240Z,31.44
2022-08-11T08:54:55.632Z,30.91
2022-08-11T08:57:28.488Z,31.58
2022-08-11T08:59:58.779Z,32.67
2022-08-11T09:02:34.456Z,34.07
2022-08-11T09:05:05.937Z,32.73
2022-08-11T09:07:39.495Z,33.13
2022-08-11T09:10:11.552Z,33.25
2022-08-11T09:12:42.819Z,32.86
2022-08-11T09:15:15.011Z,32.04
2022-08-11T09:17:51.333Z,30.87
2022-08-11T09:20:23.951Z,31.22
2022-08-11T09:26:31.282Z,31.85
2022-08-11T09:29:01.827Z,32.41
2022-08-11T09:31:39.031Z,32.60
2022-08-11T09:34:09.500Z,31.86
2022-08-11T09:36:58.439Z,33.27
2022-08-11T09:39:45.175Z,33.09
2022-08-11T09:42:16.582Z,33.24
2022-08-11T09:44:53.838Z,32.75
2022-08-11T09:47:25.520Z,33.53
2022-08-11T09:50:00.643Z,33.23
2022-08-11T09:52:33.343Z,32.54
2022-08-11T09:55:03.215Z,33.09
2022-08-11T09:57:49.360Z,32.03
2022-08-11T10:00:18.678Z,32.78
2022-08-11T10:02:49.729Z,32.96
2022-08-11T10:05:38.635Z,32.14
2022-08-11T10:08:13.812Z,31.13
2022-08-11T10:10:43.269Z,31.79
2022-08-11T10:14:31.061Z,32.29
2022-08-11T10:16:15.174Z,32.66
2022-08-11T10:18:53.378Z,32.38
2022-08-11T10:21:31.350Z,32.86
2022-08-11T10:24:21.348Z,33.11
2022-08-11T10:26:54.668Z,33.90
2022-08-11T10:29:45.198Z,33.65
2022-08-11T10:32:49.408Z,33.30
2022-08-11T10:35:29.244Z,33.21
2022-08-11T10:38:08.911Z,33.14
2022-08-11T10:41:10.773Z,32.30
2022-08-11T10:44:01.378Z,32.08
2022-08-11T10:46:47.820Z,31.96
2022-08-11T10:49:17.291Z,31.94
2022-08-11T10:52:03.992Z,31.91
2022-08-11T10:54:52.174Z,31.66
2022-08-11T10:57:41.124Z,32.28
2022-08-11T11:00:15.233Z,32.51
2022-08-11T11:02:45.276Z,32.97
2022-08-11T11:05:35.104Z,30.12
2022-08-11T11:08:32.897Z,30.56
2022-08-11T11:11:05.058Z,31.85
2022-08-11T11:13:55.556Z,32.69
2022-08-11T11:16:50.119Z,33.03
2022-08-11T11:19:23.943Z,32.74
2022-08-11T11:22:15.631Z,32.73
2022-08-11T11:24:57.714Z,31.46
2022-08-11T11:27:33.831Z,31.05
2022-08-11T11:30:08.432Z,30.55
2022-08-11T11:32:49.812Z,30.80
2022-08-11T11:35:36.892Z,31.88
2022-08-11T11:38:13.861Z,32.22
2022-08-11T11:40:43.918Z,32.95
2022-08-11T11:43:13.061Z,31.73
2022-08-11T11:45:43.534Z,31.60
2022-08-11T11:48:13.970Z,31.36
2022-08-11T11:50:42.896Z,32.07
2022-08-11T11:53:14.146Z,31.64
2022-08-11T11:55:44.013Z,30.81
2022-08-11T11:58:31.435Z,30.24
2022-08-11T12:01:24.192Z,31.56
2022-08-11T12:03:55.635Z,31.75
2022-08-11T12:06:25.990Z,31.79
2022-08-11T12:08:57.302Z,31.77
2022-08-11T12:11:45.430Z,32.32
2022-08-11T12:14:17.514Z,32.96
2022-08-11T12:16:49.723Z,31.72
2022-08-11T12:19:23.880Z,32.17
2022-08-11T12:22:13.455Z,32.07
2022-08-11T12:25:00.031Z,32.31
2022-08-11T12:27:31.258Z,32.08
2022-08-11T12:30:05.941Z,32.59
2022-08-11T12:32:38.888Z,32.19
2022-08-11T12:35:09.612Z,31.72
2022-08-11T12:37:41.715Z,32.37
2022-08-11T12:40:43.688Z,31.72
2022-08-11T12:43:40.633Z,32.06
2022-08-11T12:46:11.588Z,32.43
2022-08-11T12:49:05.244Z,31.98
2022-08-11T12:52:01.028Z,31.53
2022-08-11T12:54:52.734Z,31.12
2022-08-11T12:57:46.821Z,32.20
2022-08-11T13:00:34.406Z,32.06
2022-08-11T13:03:22.170Z,31.56
2022-08-11T13:05:55.963Z,31.94
2022-08-11T13:08:26.448Z,32.14
2022-08-11T13:11:15.810Z,32.43
2022-08-11T13:13:55.553Z,31.64
2022-08-11T13:16:27.680Z,31.61
2022-08-11T13:18:57.449Z,31.45
2022-08-11T13:21:29.167Z,31.84
2022-08-11T13:24:00.999Z,32.00
2022-08-11T13:26:46.842Z,31.40
2022-08-11T13:29:23.479Z,31.36
2022-08-11T13:31:53.676Z,31.95
2022-08-11T13:34:24.198Z,32.31
2022-08-11T13:36:56.762Z,32.16
2022-08-11T13:39:28.014Z,31.68
2022-08-11T13:41:59.545Z,32.22
2022-08-11T13:44:31.387Z,32.00
2022-08-11T13:47:02.582Z,32.14
2022-08-11T13:49:32.499Z,31.76
2022-08-11T13:52:04.044Z,31.88
2022-08-11T13:54:36.111Z,32.67
2022-08-11T13:57:38.569Z,32.00
2022-08-11T14:00:09.805Z,32.34
2022-08-11T14:02:54.667Z,32.40
2022-08-11T14:05:28.573Z,32.27
2022-08-11T14:08:02.327Z,31.95
2022-08-11T14:10:34.193Z,32.20
2022-08-11T14:13:25.480Z,31.87
2022-08-11T14:15:54.888Z,32.40
2022-08-11T14:18:28.464Z,32.32
2022-08-11T14:21:17.171Z,32.77
2022-08-11T14:23:49.431Z,32.92
2022-08-11T14:26:26.394Z,32.80
2022-08-11T14:28:59.158Z,32.34
2022-08-11T14:31:30.092Z,31.96
2022-08-11T14:34:04.150Z,31.95
2022-08-11T14:36:35.943Z,31.97
2022-08-11T14:39:13.066Z,31.40
2022-08-11T14:42:08.500Z,31.03
2022-08-11T14:45:02.062Z,31.59
2022-08-11T14:47:34.094Z,32.14
2022-08-11T14:50:11.391Z,32.41
2022-08-11T14:52:46.782Z,32.09
2022-08-11T14:55:35.314Z,32.00
2022-08-11T14:58:05.160Z,32.05
2022-08-11T15:00:35.315Z,32.03
2022-08-11T15:03:11.187Z,31.74
2022-08-11T15:05:57.127Z,32.41
2022-08-11T15:08:48.530Z,31.74
2022-08-11T15:11:34.126Z,31.98
2022-08-11T15:14:07.269Z,32.25
2022-08-11T15:16:55.177Z,32.09
2022-08-11T15:19:40.366Z,31.97
2022-08-11T15:22:39.824Z,31.83
2022-08-11T15:25:09.354Z,32.07
2022-08-11T15:27:58.379Z,32.40
2022-08-11T15:30:45.901Z,32.51
2022-08-11T15:33:35.616Z,32.16
2022-08-11T15:36:27.783Z,32.08
2022-08-11T15:39:00.156Z,32.40
2022-08-11T15:41:58.325Z,32.11
2022-08-11T15:45:04.883Z,31.70
2022-08-11T15:47:41.647Z,32.00
2022-08-11T15:50:15.816Z,32.06
2022-08-11T15:52:51.061Z,32.12
2022-08-11T15:55:20.928Z,32.19
2022-08-11T15:58:09.177Z,32.03
2022-08-11T16:01:08.674Z,32.34
2022-08-11T16:04:07.693Z,31.60
2022-08-11T16:06:42.791Z,31.95
2022-08-11T16:09:19.811Z,31.98
2022-08-11T16:11:49.898Z,31.87
2022-08-11T16:14:38.127Z,32.12
2022-08-11T16:17:11.387Z,32.14
2022-08-11T16:19:43.901Z,32.10
2022-08-11T16:22:16.201Z,31.84
2022-08-11T16:27:03.506Z,31.76
2022-08-11T16:27:39.981Z,31.74
2022-08-11T16:30:10.355Z,31.60
2022-08-11T16:32:43.147Z,31.44
2022-08-11T16:35:33.228Z,31.55
2022-08-11T16:38:21.519Z,31.44
2022-08-11T16:40:54.624Z,31.62
2022-08-11T16:43:43.591Z,31.75
2022-08-11T16:46:32.617Z,31.97
2022-08-11T16:49:05.707Z,31.76
2022-08-11T16:51:34.636Z,31.76
2022-08-11T16:54:05.724Z,31.15
2022-08-11T16:56:38.593Z,30.93
2022-08-11T16:59:16.606Z,30.99
2022-08-11T17:01:53.514Z,31.49
2022-08-11T17:04:55.448Z,30.93
2022-08-11T17:07:44.599Z,31.02
2022-08-11T17:10:51.924Z,30.90
2022-08-11T17:13:28.841Z,30.86
2022-08-11T17:16:09.052Z,31.32
2022-08-11T17:18:50.069Z,31.29
2022-08-11T17:21:26.331Z,31.32
2022-08-11T17:23:57.127Z,31.12
2022-08-11T17:26:51.576Z,31.37
2022-08-11T17:29:24.572Z,31.07
2022-08-11T17:32:11.544Z,30.95
2022-08-11T17:35:10.176Z,30.63
2022-08-11T17:37:41.739Z,30.68
2022-08-11T17:40:13.436Z,30.74
2022-08-11T17:43:01.733Z,30.66
2022-08-11T17:45:48.643Z,30.56
2022-08-11T17:48:27.665Z,30.46
2022-08-11T17:50:59.240Z,30.53
2022-08-11T17:54:10.164Z,30.38
2022-08-11T17:56:56.461Z,30.25
2022-08-11T17:59:43.824Z,30.37
2022-08-11T18:02:36.916Z,30.26
2022-08-11T18:05:12.349Z,30.86
2022-08-11T18:08:00.650Z,30.83
2022-08-11T18:10:51.422Z,30.36
2022-08-11T18:13:40.483Z,30.65
2022-08-11T18:16:27.421Z,30.85
2022-08-11T18:19:14.305Z,30.86
2022-08-11T18:22:14.207Z,30.82
2022-08-11T18:25:08.984Z,30.88
2022-08-11T18:28:00.629Z,30.74
2022-08-11T18:30:49.436Z,30.59
2022-08-11T18:34:03.721Z,30.72
2022-08-11T18:36:52.831Z,30.58
2022-08-11T18:39:42.151Z,30.44
2022-08-11T18:42:33.919Z,29.92
2022-08-11T18:45:26.221Z,30.14
2022-08-11T18:48:20.820Z,30.28
2022-08-11T18:51:30.447Z,30.39
2022-08-11T18:54:18.959Z,30.02
2022-08-11T18:57:06.407Z,30.16
2022-08-11T18:59:57.061Z,30.45
2022-08-11T19:02:49.598Z,30.61
2022-08-11T19:06:31.895Z,29.69
2022-08-11T19:08:49.702Z,29.66
2022-08-11T19:11:42.611Z,29.07
2022-08-11T19:14:30.923Z,29.35
2022-08-11T19:17:43.971Z,29.23
2022-08-11T19:20:30.176Z,29.72
2022-08-11T19:23:17.666Z,29.96
2022-08-11T19:26:05.442Z,29.80
2022-08-11T19:28:53.290Z,29.81
2022-08-11T19:31:44.019Z,29.92
2022-08-11T19:34:32.574Z,30.24
2022-08-11T19:37:24.767Z,30.22
2022-08-11T19:40:12.744Z,30.20
2022-08-11T19:43:01.639Z,30.15
2022-08-11T19:45:52.802Z,30.06
2022-08-11T19:48:41.308Z,29.98
2022-08-11T19:51:28.872Z,29.92
2022-08-11T19:54:17.635Z,29.85
2022-08-11T19:57:06.581Z,29.83
2022-08-11T19:59:54.092Z,29.77
2022-08-11T20:02:40.543Z,29.65
2022-08-11T20:05:27.660Z,29.59
2022-08-11T20:08:16.827Z,29.61
2022-08-11T20:11:08.533Z,29.59
2022-08-11T20:13:56.555Z,29.57
2022-08-11T20:16:44.309Z,29.48
2022-08-11T20:19:55.288Z,29.38
2022-08-11T20:22:38.801Z,29.36
2022-08-11T20:25:26.982Z,29.29
2022-08-11T20:28:15.437Z,29.27
2022-08-11T20:31:04.367Z,29.23
2022-08-11T20:33:51.645Z,29.17
2022-08-11T20:36:38.157Z,29.06
2022-08-11T20:39:25.719Z,29.09
2022-08-11T20:42:13.895Z,29.00
2022-08-11T20:45:02.716Z,28.93
2022-08-11T20:47:59.602Z,28.92
2022-08-11T20:50:47.694Z,28.87
2022-08-11T20:53:39.148Z,28.76
2022-08-11T20:56:28.258Z,28.76
2022-08-11T20:59:18.309Z,28.69
2022-08-11T21:02:09.752Z,28.67
2022-08-11T21:04:57.191Z,28.62
2022-08-11T21:07:55.505Z,28.60
2022-08-11T21:10:46.726Z,28.52
2022-08-11T21:13:36.955Z,28.53
2022-08-11T21:16:27.283Z,28.45
2022-08-11T21:20:01.636Z,28.41
2022-08-11T21:22:33.722Z,28.37
2022-08-11T21:25:21.303Z,28.33
2022-08-11T21:28:10.786Z,28.30
2022-08-11T21:30:58.424Z,28.19
2022-08-11T21:33:47.071Z,28.17
2022-08-11T21:36:36.516Z,28.10
2022-08-11T21:39:25.820Z,28.10
2022-08-11T21:42:13.082Z,28.05
2022-08-11T21:45:01.582Z,28.00
2022-08-11T21:47:49.435Z,27.88
2022-08-11T21:50:47.652Z,27.86
2022-08-11T21:53:36.253Z,27.87
2022-08-11T21:56:26.192Z,27.82
2022-08-11T21:59:14.982Z,27.79
2022-08-11T22:02:01.888Z,27.79
2022-08-11T22:04:50.948Z,27.75
2022-08-11T22:07:40.886Z,27.66
2022-08-11T22:10:42.176Z,27.55
2022-08-11T22:13:30.542Z,27.57
2022-08-11T22:16:17.428Z,27.55
2022-08-11T22:19:04.960Z,27.51
2022-08-11T22:22:03.767Z,27.50
2022-08-11T22:24:51.997Z,27.44
2022-08-11T22:27:39.896Z,27.34
2022-08-11T22:30:28.302Z,27.32
2022-08-11T22:33:16.593Z,27.37
2022-08-11T22:36:05.402Z,27.30
2022-08-11T22:38:53.634Z,27.26
2022-08-11T22:41:40.709Z,27.21
2022-08-11T22:44:28.556Z,27.18
2022-08-11T22:47:18.348Z,27.13
2022-08-11T22:50:08.586Z,27.14
2022-08-11T22:52:55.475Z,27.08
2022-08-11T22:55:43.004Z,27.06
2022-08-11T22:58:30.487Z,26.99
2022-08-11T23:01:18.606Z,26.90
2022-08-11T23:04:06.658Z,26.95
2022-08-11T23:06:53.976Z,26.84
2022-08-11T23:09:42.077Z,26.81
2022-08-11T23:12:28.680Z,26.77
2022-08-11T23:15:15.680Z,26.78
2022-08-11T23:18:04.209Z,26.73
2022-08-11T23:20:54.585Z,26.71
2022-08-11T23:23:43.981Z,26.66
2022-08-11T23:26:30.423Z,26.65
2022-08-11T23:29:18.342Z,26.58
2022-08-11T23:32:06.087Z,26.55
2022-08-11T23:35:36.969Z,26.51
2022-08-11T23:38:03.013Z,26.46
2022-08-11T23:40:49.216Z,26.41
2022-08-11T23:43:38.829Z,26.43
2022-08-11T23:46:25.313Z,26.34
2022-08-11T23:49:15.197Z,26.33
2022-08-11T23:52:03.633Z,26.19
2022-08-11T23:54:50.892Z,26.14
2022-08-11T23:57:37.348Z,26.19
